createdAt,value
2022-08-11T00:00:38.672Z,26.22
2022-08-11T00:03:59.529Z,26.44
2022-08-11T00:07:05.068Z,26.47
2022-08-11T00:10:12.781Z,26.51
2022-08-11T00:13:18.753Z,26.36
2022-08-11T00:27:35.973Z,26.43
2022-08-11T00:30:40.252Z,26.26
2022-08-11T00:33:45.563Z,26.19
2022-08-11T00:36:53.740Z,26.13
2022-08-11T00:39:57.998Z,26.15
2022-08-11T00:43:23.382Z,25.92
2022-08-11T00:46:26.762Z,26.03
2022-08-11T00:49:59.211Z,26.08
2022-08-11T00:53:13.827Z,26.15
2022-08-11T00:56:58.897Z,25.92
2022-08-11T01:00:27.448Z,25.87
2022-08-11T01:03:59.355Z,25.97
2022-08-11T01:08:02.072Z,26.05
2022-08-11T01:11:01.634Z,25.88
2022-08-11T01:14:34.190Z,26.09
2022-08-11T01:17:52.810Z,26.05
2022-08-11T01:21:10.848Z,25.92
2022-08-11T01:24:26.078Z,26.09
2022-08-11T01:27:47.484Z,26.09
2022-08-11T01:30:54.291Z,25.97
2022-08-11T01:34:39.530Z,25.94
2022-08-11T01:38:00.854Z,25.93
2022-08-11T01:41:34.804Z,25.97
2022-08-11T01:44:40.656Z,25.71
2022-08-11T01:48:15.007Z,25.75
2022-08-11T01:51:48.138Z,25.84
2022-08-11T01:55:08.289Z,25.66
2022-08-11T01:58:45.421Z,25.46
2022-08-11T02:02:00.446Z,25.78
2022-08-11T02:05:27.825Z,25.55
2022-08-11T02:08:37.067Z,25.67
2022-08-11T02:11:46.634Z,25.59
2022-08-11T02:15:08.471Z,25.77
2022-08-11T02:18:24.644Z,25.73
2022-08-11T02:21:37.650Z,25.76
2022-08-11T02:25:08.028Z,25.39
2022-08-11T02:28:40.118Z,25.32
2022-08-11T02:32:25.653Z,25.22
2022-08-11T02:36:07.822Z,25.33
2022-08-11T02:39:13.981Z,25.43
2022-08-11T02:42:48.166Z,25.44
2022-08-11T02:46:23.290Z,25.53
2022-08-11T02:50:24.817Z,25.25
2022-08-11T02:53:38.008Z,25.22
2022-08-11T02:57:29.860Z,25.21
2022-08-11T03:00:47.083Z,25.09
2022-08-11T03:03:56.153Z,25.32
2022-08-11T03:07:29.453Z,25.43
2022-08-11T03:10:42.650Z,25.39
2022-08-11T03:14:14.734Z,25.28
2022-08-11T03:17:30.300Z,25.32
2022-08-11T03:20:46.371Z,25.07
2022-08-11T03:24:15.236Z,25.01
2022-08-11T03:27:48.473Z,25.36
2022-08-11T03:31:16.434Z,25.15
2022-08-11T03:34:26.582Z,25.12
2022-08-11T03:37:41.505Z,25.32
2022-08-11T03:40:58.895Z,25.09
2022-08-11T03:44:10.624Z,25.13
2022-08-11T03:47:54.941Z,25.17
2022-08-11T03:51:26.200Z,25.40
2022-08-11T03:55:09.751Z,25.38
2022-08-11T03:58:24.771Z,25.18
2022-08-11T04:01:55.054Z,25.02
2022-08-11T04:05:25.855Z,25.16
2022-08-11T04:08:47.220Z,25.32
2022-08-11T04:12:35.574Z,25.21
2022-08-11T04:15:57.369Z,25.21
2022-08-11T04:19:23.097Z,25.04
2022-08-11T04:22:47.460Z,24.97
2022-08-11T04:26:27.814Z,25.09
2022-08-11T04:30:04.999Z,24.87
2022-08-11T04:33:42.155Z,24.92
2022-08-11T04:37:27.606Z,24.90
2022-08-11T04:40:44.847Z,25.19
2022-08-11T04:44:21.964Z,24.95
2022-08-11T04:47:34.126Z,24.99
2022-08-11T04:51:32.521Z,25.07
2022-08-11T04:55:00.255Z,25.01
2022-08-11T04:58:03.291Z,24.86
2022-08-11T05:01:20.034Z,24.86
2022-08-11T05:04:38.049Z,24.84
2022-08-11T05:07:46.073Z,24.96
2022-08-11T05:11:14.059Z,25.01
2022-08-11T05:14:34.716Z,24.85
2022-08-11T05:17:59.793Z,24.88
2022-08-11T05:21:08.667Z,24.88
2022-08-11T05:24:37.756Z,24.90
2022-08-11T05:27:49.955Z,24.91
2022-08-11T05:31:09.068Z,25.05
2022-08-11T05:34:24.853Z,25.17
2022-08-11T05:37:31.009Z,25.26
2022-08-11T05:40:34.302Z,25.15
2022-08-11T05:44:19.617Z,25.08
2022-08-11T05:47:06.008Z,25.19
2022-08-11T05:50:15.141Z,24.97
2022-08-11T05:53:19.093Z,24.97
2022-08-11T05:56:22.443Z,25.19
2022-08-11T05:59:26.490Z,25.26
2022-08-11T06:02:29.999Z,25.32
2022-08-11T06:05:44.076Z,25.27
2022-08-11T06:08:47.738Z,25.06
2022-08-11T06:11:51.301Z,25.03
2022-08-11T06:15:07.304Z,25.03
2022-08-11T06:18:12.535Z,25.28
2022-08-11T06:21:16.362Z,25.07
2022-08-11T06:24:20.973Z,25.10
2022-08-11T06:27:24.898Z,24.98
2022-08-11T06:30:41.908Z,25.24
2022-08-11T06:34:10.781Z,25.35
2022-08-11T06:37:16.879Z,25.24
2022-08-11T06:40:44.119Z,24.95
2022-08-11T06:44:08.372Z,25.16
2022-08-11T06:47:13.004Z,25.07
2022-08-11T06:50:21.684Z,25.11
2022-08-11T06:53:24.858Z,25.01
2022-08-11T06:56:30.865Z,25.02
2022-08-11T06:59:35.342Z,25.12
2022-08-11T07:02:49.078Z,24.90
2022-08-11T07:05:59.474Z,24.91
2022-08-11T07:09:14.739Z,25.14
2022-08-11T07:12:17.727Z,25.05
2022-08-11T07:15:21.227Z,25.09
2022-08-11T07:18:27.693Z,24.76
2022-08-11T07:22:00.262Z,24.70
2022-08-11T07:24:59.437Z,25.15
2022-08-11T07:28:13.813Z,25.24
2022-08-11T07:31:29.289Z,25.19
2022-08-11T07:34:36.451Z,25.21
2022-08-11T07:37:43.595Z,25.15
2022-08-11T07:40:47.271Z,24.91
2022-08-11T07:43:53.322Z,24.71
2022-08-11T07:46:56.543Z,24.83
2022-08-11T07:50:01.169Z,24.72
2022-08-11T07:53:05.099Z,24.69
2022-08-11T07:56:08.561Z,24.56
2022-08-11T07:59:19.001Z,24.77
2022-08-11T08:02:26.102Z,24.78
2022-08-11T08:05:33.429Z,24.82
2022-08-11T08:08:37.626Z,24.66
2022-08-11T08:11:41.220Z,24.96
2022-08-11T08:14:44.430Z,25.17
2022-08-11T08:18:09.001Z,25.10
2022-08-11T08:21:11.074Z,25.11
2022-08-11T08:24:15.053Z,25.14
2022-08-11T08:27:18.682Z,25.10
2022-08-11T08:30:22.255Z,25.02
2022-08-11T08:33:29.145Z,24.95
2022-08-11T08:36:32.284Z,24.98
2022-08-11T08:39:36.189Z,24.99
2022-08-11T08:43:00.556Z,24.60
2022-08-11T08:46:06.966Z,24.70
2022-08-11T08:49:13.759Z,24.73
2022-08-11T08:52:27.835Z,24.73
2022-08-11T08:55:36.592Z,24.76
2022-08-11T08:58:40.939Z,24.68
2022-08-11T09:01:49.106Z,24.68
2022-08-11T09:04:52.455Z,24.63
2022-08-11T09:07:56.054Z,24.91
2022-08-11T09:10:59.772Z,25.07
2022-08-11T09:14:06.467Z,24.72
2022-08-11T09:17:11.531Z,24.68
2022-08-11T09:20:23.963Z,24.57
2022-08-11T09:24:06.757Z,24.83
2022-08-11T09:26:43.685Z,24.68
2022-08-11T09:29:46.770Z,24.72
2022-08-11T09:32:49.944Z,24.62
2022-08-11T09:35:53.881Z,24.71
2022-08-11T09:38:57.773Z,24.67
2022-08-11T09:42:04.925Z,24.56
2022-08-11T09:45:08.768Z,24.69
2022-08-11T09:48:12.500Z,24.73
2022-08-11T09:51:16.850Z,24.75
2022-08-11T09:54:20.053Z,24.89
2022-08-11T09:57:24.122Z,24.58
2022-08-11T10:00:33.205Z,24.58
2022-08-11T10:03:40.265Z,24.81
2022-08-11T10:06:47.441Z,25.04
2022-08-11T10:09:53.476Z,24.92
2022-08-11T10:13:04.777Z,24.98
2022-08-11T10:16:15.842Z,24.69
2022-08-11T10:19:20.534Z,24.62
2022-08-11T10:22:23.794Z,24.63
2022-08-11T10:25:30.830Z,24.58
2022-08-11T10:28:50.035Z,24.66
2022-08-11T10:32:04.373Z,24.72
2022-08-11T10:35:08.344Z,24.42
2022-08-11T10:38:14.422Z,24.30
2022-08-11T10:41:17.920Z,24.60
2022-08-11T10:44:21.662Z,24.47
2022-08-11T10:47:26.366Z,24.62
2022-08-11T10:50:29.841Z,24.51
2022-08-11T10:53:34.029Z,24.50
2022-08-11T10:56:38.727Z,24.63
2022-08-11T10:59:42.372Z,24.43
2022-08-11T11:02:46.234Z,24.58
2022-08-11T11:06:29.525Z,24.63
2022-08-11T11:09:45.506Z,24.37
2022-08-11T11:12:55.754Z,24.05
2022-08-11T11:15:59.879Z,24.07
2022-08-11T11:19:05.325Z,23.94
2022-08-11T11:22:08.756Z,24.26
2022-08-11T11:25:31.826Z,24.20
2022-08-11T11:29:11.334Z,24.32
2022-08-11T11:32:49.048Z,24.29
2022-08-11T11:36:14.580Z,24.40
2022-08-11T11:39:23.139Z,24.15
2022-08-11T11:42:26.521Z,24.02
2022-08-11T11:45:29.940Z,24.18
2022-08-11T11:48:33.527Z,24.43
2022-08-11T11:51:38.830Z,24.22
2022-08-11T11:54:43.151Z,24.22
2022-08-11T11:57:59.264Z,24.20
2022-08-11T12:01:06.281Z,24.32
2022-08-11T12:04:09.551Z,24.26
2022-08-11T12:07:14.501Z,24.25
2022-08-11T12:10:18.448Z,24.22
2022-08-11T12:13:21.578Z,24.37
2022-08-11T12:16:34.410Z,24.41
2022-08-11T12:19:39.395Z,24.46
2022-08-11T12:22:51.840Z,24.55
2022-08-11T12:26:16.215Z,24.18
2022-08-11T12:29:20.399Z,24.37
2022-08-11T12:32:27.974Z,24.49
2022-08-11T12:35:31.867Z,24.14
2022-08-11T12:38:35.601Z,24.26
2022-08-11T12:41:42.709Z,24.25
2022-08-11T12:44:45.970Z,24.23
2022-08-11T12:48:07.679Z,24.20
2022-08-11T12:51:21.111Z,24.42
2022-08-11T12:54:26.746Z,24.35
2022-08-11T12:57:36.800Z,24.10
2022-08-11T13:00:41.175Z,24.49
2022-08-11T13:03:44.425Z,24.76
2022-08-11T13:06:55.876Z,25.05
2022-08-11T13:09:59.647Z,24.87
2022-08-11T13:13:52.596Z,24.95
2022-08-11T13:16:35.363Z,25.09
2022-08-11T13:19:38.952Z,25.08
2022-08-11T13:22:43.464Z,24.88
2022-08-11T13:25:47.077Z,24.89
2022-08-11T13:28:50.808Z,24.76
2022-08-11T13:31:57.514Z,25.14
2022-08-11T13:35:00.695Z,25.69
2022-08-11T13:38:18.476Z,25.11
2022-08-11T13:41:29.414Z,25.42
2022-08-11T13:44:35.499Z,25.58
2022-08-11T13:47:39.892Z,25.66
2022-08-11T13:50:46.946Z,25.71
2022-08-11T13:53:50.168Z,25.87
2022-08-11T13:56:55.714Z,26.18
2022-08-11T13:59:58.943Z,26.09
2022-08-11T14:03:02.534Z,26.56
2022-08-11T14:06:05.939Z,26.81
2022-08-11T14:09:09.911Z,26.48
2022-08-11T14:12:30.764Z,26.33
2022-08-11T14:15:35.547Z,26.30
2022-08-11T14:18:43.927Z,26.42
2022-08-11T14:21:48.038Z,26.40
2022-08-11T14:25:01.110Z,26.33
2022-08-11T14:28:32.156Z,26.63
2022-08-11T14:31:30.398Z,26.76
2022-08-11T14:34:33.941Z,27.48
2022-08-11T14:37:37.107Z,27.01
2022-08-11T14:40:40.422Z,27.44
2022-08-11T14:44:12.724Z,27.55
2022-08-11T14:47:24.483Z,27.41
2022-08-11T14:50:30.138Z,27.31
2022-08-11T14:53:33.637Z,27.67
2022-08-11T14:56:36.800Z,28.11
2022-08-11T14:59:40.823Z,27.97
2022-08-11T15:02:44.205Z,28.12
2022-08-11T15:05:57.377Z,27.03
2022-08-11T15:09:04.660Z,27.23
2022-08-11T15:12:32.153Z,27.49
2022-08-11T15:15:36.802Z,28.12
2022-08-11T15:18:40.325Z,28.51
2022-08-11T15:21:43.512Z,28.50
2022-08-11T15:24:48.640Z,28.65
2022-08-11T15:27:52.874Z,29.13
2022-08-11T15:30:57.889Z,29.82
2022-08-11T15:34:04.375Z,29.28
2022-08-11T15:37:13.698Z,29.81
2022-08-11T15:40:32.156Z,29.72
2022-08-11T15:43:49.043Z,29.16
2022-08-11T15:46:56.879Z,29.18
2022-08-11T15:50:11.327Z,29.94
2022-08-11T15:53:28.453Z,30.02
2022-08-11T15:56:32.992Z,29.93
2022-08-11T15:59:42.036Z,30.32
2022-08-11T16:02:46.363Z,30.50
2022-08-11T16:05:53.151Z,29.92
2022-08-11T16:08:58.188Z,30.46
2022-08-11T16:12:09.494Z,29.92
2022-08-11T16:15:12.726Z,30.04
2022-08-11T16:18:17.632Z,29.79
2022-08-11T16:21:39.144Z,29.57
2022-08-11T16:27:06.117Z,29.90
2022-08-11T16:28:11.135Z,30.16
2022-08-11T16:31:18.076Z,30.32
2022-08-11T16:34:24.760Z,30.55
2022-08-11T16:37:28.817Z,30.76
2022-08-11T16:40:33.377Z,30.97
2022-08-11T16:43:41.705Z,30.82
2022-08-11T16:46:45.935Z,30.37
2022-08-11T16:49:52.461Z,30.92
2022-08-11T16:52:56.322Z,30.81
2022-08-11T16:56:02.496Z,31.73
2022-08-11T16:59:12.188Z,31.94
2022-08-11T17:02:19.874Z,32.16
2022-08-11T17:05:25.087Z,32.22
2022-08-11T17:08:36.243Z,31.48
2022-08-11T17:11:47.443Z,31.83
2022-08-11T17:14:54.281Z,31.64
2022-08-11T17:17:59.046Z,32.00
2022-08-11T17:21:03.503Z,31.83
2022-08-11T17:24:11.491Z,32.28
2022-08-11T17:27:16.749Z,31.94
2022-08-11T17:30:19.884Z,31.23
2022-08-11T17:33:23.261Z,31.07
2022-08-11T17:36:26.477Z,32.34
2022-08-11T17:39:32.209Z,32.70
2022-08-11T17:42:36.399Z,32.04
2022-08-11T17:45:41.737Z,32.04
2022-08-11T17:48:48.002Z,32.45
2022-08-11T17:51:55.570Z,33.10
2022-08-11T17:54:59.438Z,33.28
2022-08-11T17:58:03.581Z,33.19
2022-08-11T18:01:09.041Z,32.95
2022-08-11T18:04:14.742Z,33.23
2022-08-11T18:07:20.013Z,32.50
2022-08-11T18:10:23.361Z,31.55
2022-08-11T18:13:28.820Z,32.72
2022-08-11T18:16:31.987Z,33.30
2022-08-11T18:19:35.357Z,33.83
2022-08-11T18:22:42.087Z,34.23
2022-08-11T18:25:46.387Z,33.17
2022-08-11T18:28:52.848Z,32.94
2022-08-11T18:31:56.726Z,33.43
2022-08-11T18:35:00.544Z,33.84
2022-08-11T18:38:05.662Z,33.41
2022-08-11T18:41:10.858Z,33.92
2022-08-11T18:44:15.369Z,33.86
2022-08-11T18:47:24.075Z,32.35
2022-08-11T18:50:39.363Z,33.81
2022-08-11T18:53:45.080Z,34.06
2022-08-11T18:56:48.817Z,33.70
2022-08-11T18:59:53.320Z,33.42
2022-08-11T19:02:56.921Z,33.27
2022-08-11T19:06:38.663Z,32.88
2022-08-11T19:09:27.710Z,33.03
2022-08-11T19:12:37.127Z,32.81
2022-08-11T19:15:40.825Z,33.57
2022-08-11T19:18:45.573Z,34.06
2022-08-11T19:21:50.227Z,33.44
2022-08-11T19:24:54.018Z,33.80
2022-08-11T19:27:58.929Z,33.93
2022-08-11T19:31:02.239Z,33.61
2022-08-11T19:34:10.710Z,33.36
2022-08-11T19:37:14.223Z,33.20
2022-08-11T19:40:17.700Z,33.28
2022-08-11T19:43:23.795Z,33.33
2022-08-11T19:46:31.755Z,33.16
2022-08-11T19:49:36.162Z,32.77
2022-08-11T19:52:40.587Z,33.46
2022-08-11T19:55:44.175Z,33.43
2022-08-11T19:58:48.541Z,33.81
2022-08-11T20:02:04.011Z,33.59
2022-08-11T20:05:14.906Z,32.90
2022-08-11T20:08:19.295Z,32.96
2022-08-11T20:11:23.106Z,33.04
2022-08-11T20:14:29.147Z,32.91
2022-08-11T20:17:34.870Z,33.45
2022-08-11T20:20:38.925Z,33.30
2022-08-11T20:23:43.177Z,33.15
2022-08-11T20:26:47.442Z,32.53
2022-08-11T20:29:50.677Z,32.20
2022-08-11T20:32:53.974Z,32.43
2022-08-11T20:35:58.231Z,33.01
2022-08-11T20:39:05.012Z,33.29
2022-08-11T20:42:08.986Z,33.13
2022-08-11T20:45:14.367Z,32.46
2022-08-11T20:48:19.965Z,32.46
2022-08-11T20:51:43.774Z,32.14
2022-08-11T20:54:48.990Z,32.37
2022-08-11T20:58:04.183Z,32.81
2022-08-11T21:01:20.514Z,32.62
2022-08-11T21:04:34.155Z,32.84
2022-08-11T21:07:39.499Z,32.96
2022-08-11T21:10:46.945Z,32.65
2022-08-11T21:13:51.416Z,32.67
2022-08-11T21:16:58.060Z,32.36
2022-08-11T21:20:08.032Z,32.20
2022-08-11T21:23:19.898Z,32.38
2022-08-11T21:26:27.974Z,32.50
2022-08-11T21:29:32.347Z,32.63
2022-08-11T21:32:36.193Z,32.71
2022-08-11T21:35:44.980Z,32.61
2022-08-11T21:38:50.545Z,32.35
2022-08-11T21:41:57.713Z,31.71
2022-08-11T21:45:01.150Z,31.86
2022-08-11T21:48:05.940Z,31.59
2022-08-11T21:51:09.051Z,31.70
2022-08-11T21:54:12.294Z,31.89
2022-08-11T21:57:15.882Z,31.82
2022-08-11T22:00:19.142Z,32.11
2022-08-11T22:03:22.386Z,32.07
2022-08-11T22:06:25.856Z,32.14
2022-08-11T22:09:29.203Z,31.99
2022-08-11T22:12:41.087Z,32.13
2022-08-11T22:15:46.090Z,32.06
2022-08-11T22:18:51.031Z,32.06
2022-08-11T22:22:01.363Z,32.41
2022-08-11T22:25:15.975Z,32.04
2022-08-11T22:28:22.332Z,32.03
2022-08-11T22:31:25.772Z,31.95
2022-08-11T22:34:29.224Z,32.11
2022-08-11T22:37:34.002Z,31.47
2022-08-11T22:40:37.790Z,31.95
2022-08-11T22:43:41.016Z,32.28
2022-08-11T22:46:46.203Z,32.06
2022-08-11T22:49:57.553Z,31.97
2022-08-11T22:53:02.505Z,31.65
2022-08-11T22:56:05.660Z,31.84
2022-08-11T22:59:09.424Z,31.90
2022-08-11T23:02:13.439Z,31.78
2022-08-11T23:05:17.175Z,32.09
2022-08-11T23:08:22.414Z,31.99
2022-08-11T23:11:26.506Z,32.15
2022-08-11T23:14:50.938Z,31.75
2022-08-11T23:17:56.416Z,31.04
2022-08-11T23:21:00.007Z,31.30
2022-08-11T23:24:03.103Z,31.55
2022-08-11T23:27:11.364Z,31.66
2022-08-11T23:30:17.009Z,31.62
2022-08-11T23:33:25.661Z,31.12
2022-08-11T23:36:35.821Z,31.20
2022-08-11T23:39:50.838Z,30.89
2022-08-11T23:42:54.213Z,30.79
2022-08-11T23:45:57.506Z,30.67
2022-08-11T23:49:04.449Z,30.67
2022-08-11T23:52:08.443Z,31.03
2022-08-11T23:55:11.515Z,31.35
2022-08-11T23:58:15.341Z,31.37
